ASSATEAGUE ISLAND MD US current weather conditions

sailwx.info

Wind from 183 at 6 knots gusting 9

Air temperature 23.3° C
Dewpoint 14.9° C

Last reported at 2020-Oct-01 15:40 UTC.
Time now 2020-Oct-01 16:25 UTC

Location: N 38°05' W 075°12'.
View on Google Maps.

See reports from other nearby stations

  
Tides and Currents Weather Stations Pressure Air Temp Water Temp Dewpoint Dewpoint Depression Visibility Wind Speed Wind Dir Waves Ship Positions
date/time (UTC)wind fromknots sea level pressurealtimeterstation pressurevisibilityair tempwater tempwave heightnotes
2020-Oct-01 15:40 183 6 gusting 9 23.3
2020-Oct-01 14:40 237 5 gusting 8 22.2
2020-Oct-01 13:40 247 5 gusting 10 21.1
2020-Oct-01 12:40 249 6 gusting 10 20.0
2020-Oct-01 11:40 240 5 gusting 10 18.3
2020-Oct-01 10:40 221 5 gusting 8 16.7
2020-Oct-01 09:40 231 6 gusting 11 17.8
2020-Oct-01 08:40 227 6 gusting 13 17.8
2020-Oct-01 07:40 236 8 gusting 13 18.3
2020-Oct-01 06:40 222 6 gusting 12 17.8
2020-Oct-01 05:40 230 7 gusting 13 17.8
2020-Oct-01 04:40 219 6 gusting 12 17.8
2020-Oct-01 03:40 222 6 gusting 13 17.8
2020-Oct-01 02:40 228 8 gusting 13 18.3
2020-Oct-01 01:40 213 6 gusting 10 17.8
2020-Oct-01 00:40 218 6 gusting 10 17.8
2020-Sep-30 23:40 212 6 gusting 13 17.8
2020-Sep-30 22:40 234 6 gusting 13 19.4
2020-Sep-30 21:40 240 7 gusting 13 21.1
2020-Sep-30 20:40 241 7 gusting 13 22.2
2020-Sep-30 19:40 238 9 gusting 16 22.2
2020-Sep-30 18:40 249 8 gusting 14 22.8
2020-Sep-30 17:40 263 8 gusting 15 22.2
2020-Sep-30 16:40 260 9 gusting 16 21.1
2020-Sep-30 15:40 268 8 gusting 16 20.6
2020-Sep-30 14:40 268 8 gusting 14 19.4
2020-Sep-30 13:40 249 8 gusting 15 18.3
2020-Sep-30 12:40 266 11 gusting 19 17.2
2020-Sep-30 11:40 269 12 gusting 23 15.6
2020-Sep-30 10:40 262 13 gusting 23 16.1
2020-Sep-30 09:40 260 11 gusting 22 16.7
2020-Sep-30 08:40 211 3 gusting 7 16.7
2020-Sep-30 07:40 274 3 gusting 9 16.7
2020-Sep-30 06:40 291 6 gusting 18 16.7
2020-Sep-30 05:40 184 17 gusting 33 22.8
2020-Sep-30 04:40 168 22 gusting 31 22.8
2020-Sep-30 03:40 163 18 gusting 24 22.8
2020-Sep-30 02:40 163 17 gusting 25 22.2
2020-Sep-30 01:40 161 19 gusting 25 22.2
2020-Sep-30 00:40 168 18 gusting 24 22.2
2020-Sep-29 23:40 163 14 gusting 17 22.2
2020-Sep-29 22:40 166 8 gusting 15 22.8
2020-Sep-29 21:40 152 12 gusting 15 22.8
2020-Sep-29 20:40 156 12 gusting 15 23.3
2020-Sep-29 19:40 159 11 gusting 18 23.3
2020-Sep-29 18:40 158 15 gusting 19 23.3
2020-Sep-29 17:40 157 11 gusting 13 23.9
2020-Sep-29 16:40 150 8 gusting 10 23.9